Airfield :
LOGIN :

Register | Disclaimer

   EN    FR    IT 

 










Legend :    VFR   Marginal VFR   IFR   Intensive IFR   Very Intensive IFR
Visi :
Ceiling :
>= 8 km
>= 3000ft
5 to 8 km
1000 to 3000 ft
1500m to 5 km
500 to 1000 ft
800 to 1500m
200 to 500 ft
< 800m
< 200 ft
Symbols :   Thunderstorms  Fog  Heavy snow  Heavy precipitations  Wind > 20 kt
SIGMETs :     Misc.  Thunderstorms  Icing  Turbulence  Mountain Waves  Volcanic Ashes







- Airport Elevation : 39 ft
- IATA code : ANR


EBAW - Anvers / Antwerpen Deurne

CURRENT METAR :
  • 270820Z 06005KT 350V120 9999 FEW040 18/10 Q1009 NOSIG

EXPIRED METARs :
  • 270750Z 09005KT 050V120 9999 -RA FEW030 16/10 Q1010 NOSIG
  • 270720Z 08005KT 050V110 CAVOK 16/10 Q1010 NOSIG
  • 270650Z 09006KT 060V130 CAVOK 16/09 Q1010 NOSIG
  • 270620Z 07006KT 050V110 CAVOK 15/09 Q1010 NOSIG
  • 270550Z 08007KT CAVOK 15/09 Q1010 NOSIG

TAF TAF EBAW
Valid from the 27 at 09:00 until the 27 at 18:00 UTC


270809Z 2709/2718 07006KT CAVOK
TEMPO 2713/2718 4000 SHRA
PROB30
TEMPO 2713/2718 VRB18G30KT 2500 TSRA
No reported NOTAMs for that airfield.



MET'MAP, your aeronautical weather chart ! - Copyright ORBIFLY December 2007 - Disclaimer

ORBIFLY MET'MAP TEAM :

Programming & Development : Alexandra Zaïnal
Concept & Development : Baudouin d'Aumeries
Co-Development & Prog : Marc-Olivier Méhu
Technical & hardware support : Manuel Goepfert

Contact : metmap@orbifly.com




SOURCES & CREDITS :

   NOAA